createdAt,value
2023-04-18T00:00:12.363Z,21.55
2023-04-18T00:02:40.012Z,22.63
2023-04-18T00:05:08.512Z,26.27
2023-04-18T00:07:35.665Z,26.33
2023-04-18T00:10:06.836Z,22.65
2023-04-18T00:12:34.276Z,25.92
2023-04-18T00:15:02.347Z,27.02
2023-04-18T00:17:30.345Z,28.38
2023-04-18T00:19:58.333Z,25.15
2023-04-18T00:22:25.989Z,28.77
2023-04-18T00:24:52.915Z,27.35
2023-04-18T00:27:20.750Z,30.98
2023-04-18T00:29:48.370Z,31.88
2023-04-18T00:32:16.848Z,27.42
2023-04-18T00:34:43.724Z,30.17
2023-04-18T00:37:10.538Z,30.95
2023-04-18T00:39:37.343Z,29.38
2023-04-18T00:42:05.092Z,27.00
2023-04-18T00:44:32.415Z,48.90
2023-04-18T00:46:59.349Z,39.33
2023-04-18T00:49:27.746Z,32.22
2023-04-18T00:51:56.593Z,32.50
2023-04-18T00:54:25.305Z,32.97
2023-04-18T00:56:52.220Z,33.25
2023-04-18T00:59:19.094Z,38.03
2023-04-18T01:01:46.345Z,34.72
2023-04-18T01:04:13.675Z,41.42
2023-04-18T01:10:48.226Z,35.00
2023-04-18T01:13:17.628Z,32.63
2023-04-18T01:15:48.429Z,35.22
2023-04-18T01:18:17.033Z,38.53
2023-04-18T01:20:53.161Z,42.45
2023-04-18T01:23:20.648Z,41.42
2023-04-18T01:25:49.364Z,39.83
2023-04-18T01:28:16.696Z,40.28
2023-04-18T01:30:43.511Z,38.38
2023-04-18T01:33:10.467Z,38.85
2023-04-18T01:35:37.305Z,35.38
2023-04-18T01:38:04.141Z,40.28
2023-04-18T01:40:31.255Z,39.38
2023-04-18T01:42:58.076Z,39.85
2023-04-18T01:45:24.910Z,37.47
2023-04-18T01:47:51.727Z,40.65
2023-04-18T01:50:18.752Z,37.28
2023-04-18T01:52:45.622Z,41.15
2023-04-18T01:55:12.481Z,43.20
2023-04-18T01:57:39.258Z,40.90
2023-04-18T02:00:07.585Z,39.95
2023-04-18T02:02:34.474Z,40.95
2023-04-18T02:05:01.494Z,44.30
2023-04-18T02:07:28.309Z,42.30
2023-04-18T02:09:55.132Z,40.95
2023-04-18T02:12:21.945Z,40.58
2023-04-18T02:14:53.380Z,41.85
2023-04-18T02:17:23.481Z,43.97
2023-04-18T02:19:51.631Z,45.00
2023-04-18T02:22:18.899Z,44.60
2023-04-18T02:24:45.821Z,45.08
2023-04-18T02:27:12.835Z,48.80
2023-04-18T02:29:39.632Z,55.30
2023-04-18T02:32:06.749Z,46.72
2023-04-18T02:34:33.714Z,48.00
2023-04-18T02:37:00.615Z,45.60
2023-04-18T02:39:27.535Z,50.15
2023-04-18T02:41:54.397Z,52.67
2023-04-18T02:44:21.175Z,48.90
2023-04-18T02:46:48.016Z,48.60
2023-04-18T02:49:14.819Z,50.83
2023-04-18T02:51:41.648Z,49.10
2023-04-18T02:54:08.545Z,47.83
2023-04-18T02:56:39.834Z,48.75
2023-04-18T02:59:07.396Z,44.60
2023-04-18T03:01:34.557Z,49.42
2023-04-18T03:04:01.387Z,51.47
2023-04-18T03:06:28.211Z,50.50
2023-04-18T03:08:55.935Z,49.63
2023-04-18T03:11:22.927Z,45.78
2023-04-18T03:13:49.760Z,50.40
2023-04-18T03:16:16.999Z,53.03
2023-04-18T03:18:43.942Z,49.63
2023-04-18T03:21:11.394Z,44.70
2023-04-18T03:23:38.436Z,50.90
2023-04-18T03:26:07.593Z,46.83
2023-04-18T03:28:34.803Z,48.55
2023-04-18T03:31:01.706Z,55.78
2023-04-18T03:33:28.828Z,51.45
2023-04-18T03:35:55.745Z,47.28
2023-04-18T03:38:22.591Z,51.40
2023-04-18T03:40:49.414Z,57.13
2023-04-18T03:43:16.290Z,52.88
2023-04-18T03:45:44.174Z,58.08
2023-04-18T03:48:10.964Z,60.65
2023-04-18T03:50:37.706Z,53.35
2023-04-18T03:53:04.475Z,59.45
2023-04-18T03:55:31.357Z,59.13
2023-04-18T03:57:59.122Z,57.78
2023-04-18T04:00:26.737Z,56.13
2023-04-18T04:02:53.744Z,56.45
2023-04-18T04:05:20.688Z,62.83
2023-04-18T04:07:47.675Z,57.88
2023-04-18T04:10:14.585Z,54.30
2023-04-18T04:12:41.376Z,59.65
2023-04-18T04:15:08.874Z,56.00
2023-04-18T04:17:35.692Z,62.80
2023-04-18T04:20:02.583Z,55.83
2023-04-18T04:22:29.349Z,53.15
2023-04-18T04:24:57.706Z,56.75
2023-04-18T04:27:25.088Z,59.88
2023-04-18T04:29:54.626Z,58.55
2023-04-18T04:32:21.643Z,57.63
2023-04-18T04:34:49.401Z,54.90
2023-04-18T04:37:18.555Z,53.58
2023-04-18T04:39:46.029Z,58.10
2023-04-18T04:42:13.335Z,55.38
2023-04-18T04:44:41.670Z,56.08
2023-04-18T04:47:08.648Z,55.45
2023-04-18T04:49:35.664Z,50.05
2023-04-18T04:52:05.762Z,57.13
2023-04-18T04:54:32.561Z,56.90
2023-04-18T04:56:59.330Z,54.65
2023-04-18T04:59:26.465Z,52.55
2023-04-18T05:01:53.385Z,52.28
2023-04-18T05:04:20.419Z,51.67
2023-04-18T05:06:47.426Z,54.50
2023-04-18T05:09:14.202Z,54.38
2023-04-18T05:11:40.967Z,54.45
2023-04-18T05:14:07.877Z,60.03
2023-04-18T05:16:34.815Z,51.53
2023-04-18T05:19:01.788Z,52.17
2023-04-18T05:21:29.392Z,50.30
2023-04-18T05:23:56.240Z,47.10
2023-04-18T05:26:23.499Z,50.05
2023-04-18T05:28:50.586Z,48.00
2023-04-18T05:31:17.490Z,48.10
2023-04-18T05:33:44.345Z,51.83
2023-04-18T05:36:11.220Z,48.35
2023-04-18T05:38:38.110Z,51.60
2023-04-18T05:41:05.118Z,52.85
2023-04-18T05:43:32.047Z,48.25
2023-04-18T05:45:59.101Z,48.22
2023-04-18T05:48:26.029Z,51.83
2023-04-18T05:50:53.015Z,50.17
2023-04-18T05:53:19.811Z,48.42
2023-04-18T05:55:48.660Z,51.13
2023-04-18T05:58:16.001Z,49.00
2023-04-18T06:00:43.315Z,51.58
2023-04-18T06:03:11.332Z,52.90
2023-04-18T06:05:38.751Z,48.80
2023-04-18T06:08:05.914Z,47.40
2023-04-18T06:10:33.307Z,42.88
2023-04-18T06:13:00.223Z,42.60
2023-04-18T06:15:27.082Z,45.58
2023-04-18T06:17:54.003Z,45.70
2023-04-18T06:20:23.058Z,40.45
2023-04-18T06:22:49.857Z,40.30
2023-04-18T06:25:16.693Z,44.22
2023-04-18T06:27:43.538Z,46.50
2023-04-18T06:30:11.292Z,42.33
2023-04-18T06:32:38.298Z,39.78
2023-04-18T06:35:06.043Z,43.50
2023-04-18T06:37:32.948Z,40.97
2023-04-18T06:39:59.719Z,45.85
2023-04-18T06:42:26.642Z,45.00
2023-04-18T06:44:53.465Z,44.90
2023-04-18T06:47:20.422Z,42.92
2023-04-18T06:49:48.087Z,43.30
2023-04-18T06:52:14.908Z,40.95
2023-04-18T06:54:41.673Z,39.08
2023-04-18T06:57:08.867Z,39.75
2023-04-18T06:59:35.751Z,42.97
2023-04-18T07:02:02.560Z,41.80
2023-04-18T07:04:29.370Z,39.63
2023-04-18T07:06:56.366Z,41.60
2023-04-18T07:09:23.127Z,42.38
2023-04-18T07:11:51.064Z,41.45
2023-04-18T07:14:19.846Z,39.42
2023-04-18T07:16:47.075Z,43.97
2023-04-18T07:19:13.885Z,44.97
2023-04-18T07:21:42.895Z,40.78
2023-04-18T07:24:10.288Z,41.33
2023-04-18T07:26:38.210Z,42.67
2023-04-18T07:29:05.074Z,35.78
2023-04-18T07:31:31.932Z,42.25
2023-04-18T07:33:59.075Z,42.15
2023-04-18T07:36:26.369Z,38.72
2023-04-18T07:38:53.183Z,38.67
2023-04-18T07:41:19.964Z,37.97
2023-04-18T07:43:46.720Z,41.25
2023-04-18T07:46:13.579Z,37.00
2023-04-18T07:48:40.632Z,38.20
2023-04-18T07:51:07.489Z,33.63
2023-04-18T07:53:34.271Z,41.38
2023-04-18T07:56:01.078Z,39.13
2023-04-18T07:58:27.885Z,36.58
2023-04-18T08:00:54.735Z,35.35
2023-04-18T08:03:21.786Z,36.03
2023-04-18T08:05:49.027Z,36.15
2023-04-18T08:08:16.704Z,36.55
2023-04-18T08:10:43.582Z,35.33
2023-04-18T08:13:12.942Z,32.25
2023-04-18T08:15:40.913Z,35.58
2023-04-18T08:18:07.870Z,36.53
2023-04-18T08:20:37.011Z,33.33
2023-04-18T08:23:08.632Z,35.58
2023-04-18T08:25:37.328Z,31.38
2023-04-18T08:28:04.519Z,31.23
2023-04-18T08:30:31.518Z,30.83
2023-04-18T08:33:00.348Z,29.83
2023-04-18T08:35:27.414Z,35.95
2023-04-18T08:37:54.457Z,33.13
2023-04-18T08:40:21.457Z,33.92
2023-04-18T08:42:49.176Z,29.13
2023-04-18T08:45:16.215Z,32.80
2023-04-18T08:47:43.378Z,31.23
2023-04-18T08:50:11.246Z,32.42
2023-04-18T08:52:40.096Z,34.60
2023-04-18T08:55:09.396Z,38.13
2023-04-18T08:57:36.340Z,33.88
2023-04-18T09:00:11.291Z,33.65
2023-04-18T09:02:42.689Z,32.53
2023-04-18T09:05:21.205Z,37.63
2023-04-18T09:07:50.774Z,34.63
2023-04-18T09:10:34.240Z,31.52
2023-04-18T09:13:03.878Z,32.28
2023-04-18T09:15:31.225Z,34.58
2023-04-18T09:18:02.889Z,33.38
2023-04-18T09:20:35.783Z,33.22
2023-04-18T09:23:05.522Z,33.47
2023-04-18T09:25:44.966Z,31.38
2023-04-18T09:28:29.406Z,34.20
2023-04-18T09:31:12.926Z,30.00
2023-04-18T09:33:49.573Z,29.23
2023-04-18T09:36:27.031Z,28.75
2023-04-18T09:38:57.031Z,24.05
2023-04-18T09:41:38.564Z,25.80
2023-04-18T09:44:20.093Z,24.73
2023-04-18T09:46:47.741Z,24.98
2023-04-18T09:49:30.055Z,23.60
2023-04-18T09:51:57.490Z,25.83
2023-04-18T09:54:26.027Z,28.88
2023-04-18T09:56:55.337Z,23.83
2023-04-18T09:59:37.933Z,24.25
2023-04-18T10:02:08.095Z,25.05
2023-04-18T10:04:57.220Z,24.40
2023-04-18T10:07:26.142Z,22.02
2023-04-18T10:09:53.550Z,22.77
2023-04-18T10:12:20.544Z,27.80
2023-04-18T10:14:48.032Z,25.83
2023-04-18T10:17:20.332Z,25.15
2023-04-18T10:22:55.189Z,24.48
2023-04-18T10:25:40.001Z,24.00
2023-04-18T10:28:09.234Z,24.92
2023-04-18T10:30:40.071Z,23.33
2023-04-18T10:33:33.388Z,24.98
2023-04-18T10:36:09.678Z,24.58
2023-04-18T10:38:45.413Z,28.67
2023-04-18T10:41:27.552Z,25.08
2023-04-18T10:44:08.515Z,25.00
2023-04-18T10:46:41.938Z,24.15
2023-04-18T10:51:47.821Z,24.45
2023-04-18T10:54:47.206Z,24.73
2023-04-18T10:57:15.228Z,23.13
2023-04-18T10:59:45.237Z,21.92
2023-04-18T11:02:30.298Z,20.92
2023-04-18T11:04:59.806Z,24.80
2023-04-18T11:07:42.032Z,24.00
2023-04-18T11:10:30.085Z,21.60
2023-04-18T11:12:59.163Z,19.10
2023-04-18T11:15:26.303Z,24.98
2023-04-18T11:18:04.612Z,20.83
2023-04-18T11:20:39.844Z,19.75
2023-04-18T11:23:18.153Z,19.42
2023-04-18T11:25:45.842Z,24.75
2023-04-18T11:28:16.731Z,21.48
2023-04-18T11:30:43.557Z,19.48
2023-04-18T11:33:12.457Z,20.42
2023-04-18T11:35:41.802Z,19.05
2023-04-18T11:38:10.936Z,20.15
2023-04-18T11:40:37.947Z,21.02
2023-04-18T11:43:07.001Z,18.75
2023-04-18T11:45:34.116Z,20.05
2023-04-18T11:48:01.475Z,18.48
2023-04-18T11:50:28.415Z,19.67
2023-04-18T11:52:56.019Z,18.88
2023-04-18T11:55:25.429Z,15.05
2023-04-18T11:57:59.767Z,19.30
2023-04-18T12:00:41.882Z,17.95
2023-04-18T12:03:17.182Z,16.70
2023-04-18T12:05:44.992Z,20.48
2023-04-18T12:08:18.175Z,18.20
2023-04-18T12:10:51.188Z,16.73
2023-04-18T12:15:46.967Z,16.88
2023-04-18T12:18:15.626Z,14.02
2023-04-18T12:20:52.402Z,13.95
2023-04-18T12:23:33.857Z,13.43
2023-04-18T12:26:06.952Z,13.68
2023-04-18T12:31:02.613Z,13.77
2023-04-18T12:33:30.433Z,15.55
2023-04-18T12:35:57.383Z,15.60
2023-04-18T12:38:24.386Z,18.55
2023-04-18T12:40:52.429Z,15.10
2023-04-18T12:43:19.890Z,14.35
2023-04-18T12:45:48.010Z,15.98
2023-04-18T12:48:15.906Z,15.38
2023-04-18T12:50:43.931Z,17.00
2023-04-18T12:53:11.516Z,14.68
2023-04-18T12:55:38.938Z,14.50
2023-04-18T12:58:06.260Z,14.13
2023-04-18T13:00:33.560Z,15.50
2023-04-18T13:03:01.016Z,13.77
2023-04-18T13:05:33.068Z,14.38
2023-04-18T13:10:32.005Z,14.35
2023-04-18T13:12:58.969Z,12.80
2023-04-18T13:15:27.444Z,13.95
2023-04-18T13:17:56.676Z,13.82
2023-04-18T13:20:23.668Z,15.02
2023-04-18T13:22:50.609Z,14.68
2023-04-18T13:25:17.420Z,16.48
2023-04-18T13:27:45.787Z,14.23
2023-04-18T13:30:12.996Z,17.73
2023-04-18T13:32:41.532Z,14.00
2023-04-18T13:35:11.398Z,16.75
2023-04-18T13:37:38.809Z,16.23
2023-04-18T13:40:07.866Z,12.98
2023-04-18T13:42:36.690Z,12.88
2023-04-18T13:45:04.247Z,16.50
2023-04-18T13:47:31.278Z,13.60
2023-04-18T13:49:58.428Z,15.13
2023-04-18T13:52:25.903Z,22.40
2023-04-18T13:54:52.862Z,17.10
2023-04-18T13:57:19.912Z,17.23
2023-04-18T13:59:46.834Z,18.63
2023-04-18T14:02:13.964Z,13.15
2023-04-18T14:04:41.419Z,13.02
2023-04-18T14:07:11.801Z,16.52
2023-04-18T14:09:38.697Z,29.95
2023-04-18T14:12:06.007Z,24.80
2023-04-18T14:14:33.232Z,18.15
2023-04-18T14:17:00.013Z,21.73
2023-04-18T14:19:27.452Z,31.15
2023-04-18T14:21:54.541Z,25.63
2023-04-18T14:24:21.544Z,22.85
2023-04-18T14:26:48.358Z,14.85
2023-04-18T14:29:15.661Z,22.05
2023-04-18T14:31:42.825Z,20.35
2023-04-18T14:34:09.797Z,20.67
2023-04-18T14:36:37.030Z,17.05
2023-04-18T14:39:04.762Z,22.20
2023-04-18T14:41:31.703Z,19.63
2023-04-18T14:43:59.499Z,15.82
2023-04-18T14:46:28.246Z,16.27
2023-04-18T14:48:55.446Z,11.82
2023-04-18T14:51:23.213Z,13.82
2023-04-18T14:53:50.094Z,17.02
2023-04-18T14:56:20.816Z,14.70
2023-04-18T14:58:47.732Z,15.88
2023-04-18T15:01:14.721Z,16.05
2023-04-18T15:03:41.748Z,19.10
2023-04-18T15:06:08.843Z,14.48
2023-04-18T15:08:36.018Z,15.10
2023-04-18T15:11:07.537Z,15.52
2023-04-18T15:13:34.478Z,12.77
2023-04-18T15:16:01.484Z,15.18
2023-04-18T15:18:29.584Z,15.32
2023-04-18T15:20:59.074Z,16.20
2023-04-18T15:23:26.105Z,16.90
2023-04-18T15:25:52.935Z,12.80
2023-04-18T15:28:19.929Z,14.05
2023-04-18T15:30:47.026Z,15.27
2023-04-18T15:33:14.154Z,13.15
2023-04-18T15:35:40.953Z,11.88
2023-04-18T15:38:07.745Z,14.77
2023-04-18T15:40:36.127Z,15.25
2023-04-18T15:43:03.981Z,14.60
2023-04-18T15:45:31.243Z,16.77
2023-04-18T15:47:58.782Z,16.40
2023-04-18T15:50:26.075Z,19.92
2023-04-18T15:52:53.128Z,18.80
2023-04-18T15:55:20.087Z,16.55
2023-04-18T15:57:46.970Z,19.25
2023-04-18T16:00:17.458Z,14.18
2023-04-18T16:02:45.490Z,15.63
2023-04-18T16:05:13.141Z,17.70
2023-04-18T16:07:42.001Z,17.13
2023-04-18T16:10:11.269Z,16.63
2023-04-18T16:12:39.528Z,17.42
2023-04-18T16:15:09.030Z,15.88
2023-04-18T16:17:37.258Z,19.17
2023-04-18T16:20:06.204Z,18.42
2023-04-18T16:22:33.297Z,14.73
2023-04-18T16:25:00.302Z,16.90
2023-04-18T16:27:27.248Z,16.92
2023-04-18T16:29:54.385Z,16.58
2023-04-18T16:32:21.289Z,15.55
2023-04-18T16:34:48.497Z,17.45
2023-04-18T16:37:15.874Z,31.38
2023-04-18T16:39:42.723Z,28.00
2023-04-18T16:42:09.528Z,54.42
2023-04-18T16:44:36.488Z,38.42
2023-04-18T16:47:04.994Z,28.10
2023-04-18T16:49:31.978Z,21.08
2023-04-18T16:51:58.786Z,18.83
2023-04-18T16:54:25.577Z,20.90
2023-04-18T16:56:52.434Z,19.70
2023-04-18T16:59:19.247Z,17.75
2023-04-18T17:01:46.128Z,18.48
2023-04-18T17:04:15.365Z,18.67
2023-04-18T17:06:43.670Z,19.50
2023-04-18T17:09:13.450Z,53.25
2023-04-18T17:11:41.746Z,36.90
2023-04-18T17:14:09.175Z,44.72
2023-04-18T17:16:40.559Z,38.10
2023-04-18T17:19:08.557Z,30.35
2023-04-18T17:21:36.591Z,44.78
2023-04-18T17:24:05.805Z,26.95
2023-04-18T17:26:38.219Z,23.50
2023-04-18T17:29:05.214Z,17.55
2023-04-18T17:31:32.587Z,16.52
2023-04-18T17:34:00.327Z,23.08
2023-04-18T17:36:27.170Z,43.92
2023-04-18T17:38:54.114Z,27.90
2023-04-18T17:41:21.714Z,27.67
2023-04-18T17:43:50.969Z,25.48
2023-04-18T17:46:18.065Z,29.80
2023-04-18T17:48:45.030Z,26.00
2023-04-18T17:51:11.892Z,23.67
2023-04-18T17:53:38.725Z,20.23
2023-04-18T17:56:06.194Z,20.60
2023-04-18T17:58:33.035Z,20.02
2023-04-18T18:00:59.925Z,18.52
2023-04-18T18:03:27.039Z,22.25
2023-04-18T18:05:55.023Z,20.08
2023-04-18T18:08:22.576Z,24.73
2023-04-18T18:10:49.764Z,19.10
2023-04-18T18:13:16.628Z,23.40
2023-04-18T18:15:43.459Z,24.63
2023-04-18T18:18:10.542Z,23.98
2023-04-18T18:20:38.024Z,22.60
2023-04-18T18:23:05.020Z,21.45
2023-04-18T18:25:32.641Z,26.38
2023-04-18T18:27:59.704Z,25.75
2023-04-18T18:30:27.848Z,20.52
2023-04-18T18:32:56.326Z,28.70
2023-04-18T18:35:23.969Z,22.27
2023-04-18T18:37:50.979Z,23.23
2023-04-18T18:40:17.873Z,24.33
2023-04-18T18:42:45.356Z,28.20
2023-04-18T18:45:12.592Z,23.60
2023-04-18T18:47:40.480Z,20.60
2023-04-18T18:50:07.834Z,28.48
2023-04-18T18:52:35.830Z,22.55
2023-04-18T18:55:04.425Z,21.83
2023-04-18T18:57:33.819Z,25.15
2023-04-18T19:00:02.288Z,24.67
2023-04-18T19:02:57.230Z,22.90
2023-04-18T19:05:27.457Z,24.20
2023-04-18T19:07:56.476Z,17.38
2023-04-18T19:10:24.614Z,20.02
2023-04-18T19:12:51.565Z,22.77
2023-04-18T19:15:29.531Z,18.35
2023-04-18T19:17:57.708Z,18.15
2023-04-18T19:20:28.766Z,21.02
2023-04-18T19:22:57.363Z,18.88
2023-04-18T19:25:26.738Z,17.00
2023-04-18T19:27:53.670Z,18.88
2023-04-18T19:30:20.688Z,16.80
2023-04-18T19:32:47.571Z,16.85
2023-04-18T19:35:15.724Z,18.15
2023-04-18T19:37:43.293Z,16.00
2023-04-18T19:40:11.629Z,20.02
2023-04-18T19:42:38.834Z,18.75
2023-04-18T19:45:06.581Z,22.75
2023-04-18T19:47:34.044Z,25.95
2023-04-18T19:50:03.219Z,27.42
2023-04-18T19:52:30.174Z,23.58
2023-04-18T19:54:57.844Z,21.00
2023-04-18T19:57:27.464Z,22.90
2023-04-18T19:59:54.936Z,27.48
2023-04-18T20:02:21.854Z,21.15
2023-04-18T20:04:48.920Z,24.10
2023-04-18T20:07:16.549Z,19.73
2023-04-18T20:09:43.542Z,24.23
2023-04-18T20:12:10.528Z,23.00
2023-04-18T20:14:37.492Z,27.92
2023-04-18T20:17:04.409Z,29.25
2023-04-18T20:19:31.438Z,39.50
2023-04-18T20:21:58.449Z,33.70
2023-04-18T20:24:27.936Z,42.55
2023-04-18T20:26:55.838Z,42.15
2023-04-18T20:29:23.974Z,45.80
2023-04-18T20:31:52.661Z,47.00
2023-04-18T20:34:20.700Z,41.20
2023-04-18T20:36:53.634Z,26.45
2023-04-18T20:39:21.543Z,23.63
2023-04-18T20:41:54.242Z,27.33
2023-04-18T20:44:24.751Z,24.40
2023-04-18T20:46:53.595Z,37.53
2023-04-18T20:49:22.027Z,35.15
2023-04-18T20:51:49.728Z,30.08
2023-04-18T20:54:19.632Z,20.92
2023-04-18T20:56:49.290Z,21.58
2023-04-18T20:59:19.097Z,20.90
2023-04-18T21:01:48.018Z,21.88
2023-04-18T21:04:15.484Z,23.52
2023-04-18T21:06:44.040Z,24.10
2023-04-18T21:09:11.716Z,22.52
2023-04-18T21:11:38.998Z,23.48
2023-04-18T21:14:07.103Z,24.90
2023-04-18T21:16:36.135Z,31.13
2023-04-18T21:19:03.753Z,24.35
2023-04-18T21:21:32.321Z,23.52
2023-04-18T21:24:02.561Z,27.08
2023-04-18T21:26:31.479Z,26.10
2023-04-18T21:29:04.868Z,24.67
2023-04-18T21:34:04.178Z,37.70
2023-04-18T21:36:32.240Z,39.05
2023-04-18T21:39:00.956Z,33.05
2023-04-18T21:41:28.062Z,32.90
2023-04-18T21:43:54.950Z,31.60
2023-04-18T21:46:21.899Z,25.55
2023-04-18T21:48:49.099Z,28.08
2023-04-18T21:51:17.697Z,28.92
2023-04-18T21:53:44.871Z,28.48
2023-04-18T21:56:11.907Z,27.75
2023-04-18T21:58:38.828Z,33.40
2023-04-18T22:01:05.807Z,35.70
2023-04-18T22:06:03.069Z,28.13
2023-04-18T22:08:31.381Z,27.95
2023-04-18T22:10:59.261Z,30.23
2023-04-18T22:13:33.374Z,37.22
2023-04-18T22:16:05.082Z,32.13
2023-04-18T22:18:35.242Z,33.00
2023-04-18T22:21:03.511Z,31.80
2023-04-18T22:23:30.970Z,36.47
2023-04-18T22:25:58.165Z,34.58
2023-04-18T22:28:27.685Z,33.55
2023-04-18T22:30:55.211Z,29.50
2023-04-18T22:33:22.123Z,38.85
2023-04-18T22:35:49.012Z,30.08
2023-04-18T22:38:16.222Z,35.60
2023-04-18T22:40:43.014Z,28.35
2023-04-18T22:43:09.795Z,32.55
2023-04-18T22:45:36.567Z,30.85
2023-04-18T22:48:03.641Z,33.53
2023-04-18T22:50:30.459Z,29.88
2023-04-18T22:52:57.435Z,32.92
2023-04-18T22:55:24.297Z,32.75
2023-04-18T22:57:51.070Z,30.90
2023-04-18T23:00:18.200Z,41.08
2023-04-18T23:02:45.187Z,34.15
2023-04-18T23:05:12.140Z,32.67
2023-04-18T23:07:38.929Z,31.13
2023-04-18T23:10:07.633Z,32.33
2023-04-18T23:12:34.359Z,30.90
2023-04-18T23:15:01.297Z,31.52
2023-04-18T23:17:28.181Z,33.55
2023-04-18T23:19:55.004Z,30.20
2023-04-18T23:22:24.038Z,31.83
2023-04-18T23:24:50.889Z,31.50
2023-04-18T23:27:18.732Z,29.55
2023-04-18T23:29:48.673Z,34.13
2023-04-18T23:32:15.800Z,32.83
2023-04-18T23:34:42.873Z,29.67
2023-04-18T23:37:09.726Z,30.67
2023-04-18T23:39:36.576Z,35.53
2023-04-18T23:42:03.444Z,30.10
2023-04-18T23:44:30.298Z,29.15
2023-04-18T23:46:57.070Z,33.28
2023-04-18T23:49:23.883Z,31.27
2023-04-18T23:51:50.753Z,32.88
2023-04-18T23:54:17.570Z,33.25
2023-04-18T23:56:44.395Z,31.60
2023-04-18T23:59:11.154Z,32.92
